Time;durP1;ratioP1;P1;durP2;ratioP2;P2;SDS_P1;SDS_P2;PMS_P1;PMS_P2;Temp;Humidity;BMP_temperature;BMP_pressure;BME280_temperature;BME280_humidity;BME280_pressure;Samples;Min_cycle;Max_cycle;Signal;HPM_P1;HPM_P2
2022/02/06 00:01:02;;;;;;;14.32;2.95;;;7.50;78.00;;;;;;4994408;28;20061;-89
2022/02/06 00:03:31;;;;;;;8.07;2.40;;;7.50;78.00;;;;;;4994533;28;20046;-87
2022/02/06 00:06:00;;;;;;;9.80;2.65;;;7.50;78.00;;;;;;4993871;28;20042;-87
2022/02/06 00:08:27;;;;;;;9.98;2.40;;;7.50;77.90;;;;;;4978009;28;20053;-88
2022/02/06 00:10:55;;;;;;;10.32;2.40;;;7.50;77.90;;;;;;4993884;28;20054;-88
2022/02/06 00:13:22;;;;;;;12.00;2.38;;;7.50;77.90;;;;;;4994534;28;20058;-87
2022/02/06 00:15:49;;;;;;;10.18;2.08;;;7.50;77.90;;;;;;4994183;28;20058;-88
2022/02/06 00:18:16;;;;;;;10.13;2.60;;;7.50;77.90;;;;;;4993206;28;20038;-88
2022/02/06 00:20:52;;;;;;;9.07;2.47;;;7.50;77.80;;;;;;4994533;28;20105;-88
2022/02/06 00:23:22;;;;;;;12.35;2.72;;;7.50;77.80;;;;;;4994472;28;20046;-88
2022/02/06 00:28:35;;;;;;;8.43;2.35;;;7.60;77.80;;;;;;4993761;28;20050;-86
2022/02/06 00:31:28;;;;;;;11.48;2.63;;;7.60;77.70;;;;;;4993849;28;20049;-90
2022/02/06 00:39:14;;;;;;;13.88;2.83;;;7.60;77.70;;;;;;4994608;28;20050;-88
2022/02/06 00:41:41;;;;;;;11.85;2.42;;;7.60;77.60;;;;;;4994053;28;20423;-88
2022/02/06 00:44:09;;;;;;;9.20;2.60;;;7.60;77.60;;;;;;4993059;28;20546;-88
2022/02/06 00:46:38;;;;;;;9.30;2.53;;;7.70;77.60;;;;;;4993687;28;20055;-87
2022/02/06 00:49:15;;;;;;;13.13;2.63;;;7.70;77.60;;;;;;4994025;28;20052;-87
2022/02/06 00:51:58;;;;;;;12.48;2.33;;;7.70;77.60;;;;;;4993943;28;20046;-88
2022/02/06 00:54:26;;;;;;;12.10;3.13;;;7.70;77.60;;;;;;4993995;28;20520;-88
2022/02/06 00:56:52;;;;;;;11.38;2.50;;;7.70;77.70;;;;;;4992826;28;20061;-89
2022/02/06 00:59:20;;;;;;;5.82;1.70;;;7.70;77.80;;;;;;4992400;28;20069;-88
2022/02/06 01:01:47;;;;;;;8.40;2.53;;;7.80;77.80;;;;;;4993135;28;20054;-88
2022/02/06 01:04:15;;;;;;;8.52;2.22;;;7.80;77.80;;;;;;4993769;28;20050;-88
2022/02/06 01:06:42;;;;;;;10.07;2.58;;;7.80;77.90;;;;;;4993718;28;20056;-87
2022/02/06 01:09:10;;;;;;;8.73;2.22;;;7.80;77.90;;;;;;4992387;28;20042;-88
2022/02/06 01:11:38;;;;;;;7.13;2.00;;;7.90;77.90;;;;;;4993786;28;20533;-88
2022/02/06 01:16:57;;;;;;;8.00;2.00;;;7.90;78.00;;;;;;4994244;28;20062;-87
2022/02/06 01:19:29;;;;;;;9.38;2.30;;;7.90;78.00;;;;;;4992394;28;20451;-87
2022/02/06 01:22:02;;;;;;;10.00;2.30;;;7.90;77.90;;;;;;4992459;28;20051;-87
2022/02/06 01:24:43;;;;;;;7.93;2.42;;;7.90;77.90;;;;;;4993524;28;20039;-88
2022/02/06 01:27:15;;;;;;;11.20;2.60;;;7.90;77.90;;;;;;4993349;28;20057;-89
2022/02/06 01:29:55;;;;;;;8.15;2.28;;;7.90;77.80;;;;;;4993823;28;20065;-89
2022/02/06 01:32:27;;;;;;;9.68;2.88;;;7.90;77.80;;;;;;4993846;28;20054;-88
2022/02/06 01:35:01;;;;;;;8.20;2.55;;;7.90;77.80;;;;;;4991670;28;20058;-87
2022/02/06 01:37:36;;;;;;;11.23;3.03;;;8.00;77.70;;;;;;4993181;28;20042;-88
2022/02/06 01:45:24;;;;;;;7.40;1.98;;;8.00;77.70;;;;;;4998835;28;20050;-87
2022/02/06 02:04:27;;;;;;;14.32;2.65;;;8.10;77.80;;;;;;4996966;28;20046;-88
2022/02/06 02:13:01;;;;;;;15.90;2.75;;;8.20;77.90;;;;;;4996501;28;20053;-87
2022/02/06 02:15:17;;;;;;;11.63;2.50;;;8.20;77.90;;;;;;4989768;28;20050;-87
2022/02/06 02:29:49;;;;;;;11.30;2.55;;;8.30;78.10;;;;;;4918299;29;20157;-89
2022/02/06 02:47:42;;;;;;;9.95;2.25;;;8.30;78.40;;;;;;4917493;29;20075;-87
2022/02/06 02:50:16;;;;;;;10.65;2.70;;;8.30;78.40;;;;;;4915937;29;20497;-87
2022/02/06 02:52:54;;;;;;;10.00;3.08;;;8.40;78.40;;;;;;4914782;29;20167;-88
2022/02/06 03:00:56;;;;;;;;;;;8.40;78.50;;;;;;4996408;28;20137;-87
2022/02/06 03:03:30;;;;;;;10.30;2.50;;;8.40;78.60;;;;;;4995888;28;19929;-87
2022/02/06 03:06:00;;;;;;;14.57;3.20;;;8.40;78.70;;;;;;4994749;28;20128;-88
2022/02/06 03:08:28;;;;;;;15.48;3.20;;;8.40;78.80;;;;;;4995513;28;20058;-87
2022/02/06 03:10:58;;;;;;;10.77;2.17;;;8.40;78.90;;;;;;4995110;28;20503;-88
2022/02/06 03:13:36;;;;;;;11.07;2.90;;;8.40;79.00;;;;;;4994605;28;20522;-88
2022/02/06 03:21:29;;;;;;;9.80;2.55;;;8.40;79.10;;;;;;4995666;28;20047;-88
2022/02/06 03:24:06;;;;;;;11.25;3.03;;;8.40;79.10;;;;;;4994151;28;20046;-88
2022/02/06 03:26:33;;;;;;;10.05;2.45;;;8.40;79.10;;;;;;4980701;28;20049;-87
2022/02/06 03:29:00;;;;;;;9.80;2.75;;;8.40;79.10;;;;;;4994497;28;20062;-88
2022/02/06 03:31:27;;;;;;;11.63;2.22;;;8.40;79.10;;;;;;4995334;28;20054;-89
2022/02/06 03:33:54;;;;;;;9.68;2.50;;;8.40;79.00;;;;;;4995265;28;20418;-87
2022/02/06 03:36:21;;;;;;;11.27;2.83;;;8.40;79.00;;;;;;4995275;28;20046;-88
2022/02/06 03:38:51;;;;;;;10.20;2.22;;;8.40;79.00;;;;;;4993860;28;20046;-87
2022/02/06 03:41:19;;;;;;;10.35;2.05;;;8.40;79.00;;;;;;4995293;28;20108;-88
2022/02/06 03:46:23;;;;;;;12.43;2.55;;;8.40;79.00;;;;;;4995163;28;20054;-88
2022/02/06 03:48:55;;;;;;;12.07;2.78;;;8.40;79.00;;;;;;4995163;28;20058;-87
2022/02/06 03:51:30;;;;;;;8.77;2.67;;;8.40;79.00;;;;;;4995080;28;20057;-88
2022/02/06 03:53:57;;;;;;;10.68;2.75;;;8.40;79.00;;;;;;4995033;28;20046;-87
2022/02/06 03:56:26;;;;;;;13.75;2.38;;;8.40;79.00;;;;;;4995021;28;20050;-89
2022/02/06 03:58:53;;;;;;;9.02;2.60;;;8.40;79.00;;;;;;4994222;28;20053;-88
2022/02/06 04:01:21;;;;;;;18.60;2.70;;;8.40;79.00;;;;;;4992939;28;20065;-87
2022/02/06 04:03:49;;;;;;;12.55;2.58;;;8.40;79.00;;;;;;4993685;28;20057;-87
2022/02/06 04:06:16;;;;;;;15.70;2.72;;;8.40;79.00;;;;;;4994727;28;20397;-88
2022/02/06 04:08:44;;;;;;;10.77;2.72;;;8.40;79.10;;;;;;4993184;28;20042;-87
2022/02/06 04:11:16;;;;;;;8.55;2.78;;;8.40;79.10;;;;;;4993263;28;20050;-87
2022/02/06 04:16:50;;;;;;;10.70;2.30;;;8.40;79.10;;;;;;4914688;29;20052;-87
2022/02/06 04:19:20;;;;;;;7.95;2.22;;;8.40;79.10;;;;;;4915347;29;20406;-88
2022/02/06 04:21:47;;;;;;;6.93;2.28;;;8.40;79.10;;;;;;4915221;29;20184;-86
2022/02/06 04:24:15;;;;;;;10.43;2.40;;;8.40;79.20;;;;;;4915281;29;20044;-88
2022/02/06 04:26:42;;;;;;;10.55;2.28;;;8.40;79.20;;;;;;4915771;29;20052;-88
2022/02/06 04:29:10;;;;;;;11.68;2.30;;;8.40;79.30;;;;;;4914918;29;20413;-88
2022/02/06 04:31:39;;;;;;;10.07;2.17;;;8.40;79.30;;;;;;4899356;29;20068;-87
2022/02/06 04:34:07;;;;;;;13.30;2.30;;;8.50;79.40;;;;;;4915189;29;20534;-88
2022/02/06 04:36:53;;;;;;;11.60;2.22;;;8.50;79.50;;;;;;4914751;29;20139;-88
2022/02/06 04:42:12;;;;;;;8.82;2.20;;;8.40;79.80;;;;;;4915132;29;20051;-88
2022/02/06 05:22:25;;;;;;;13.75;2.42;;;8.30;81.60;;;;;;4993796;28;20081;-86
2022/02/06 05:30:16;;;;;;;9.98;2.42;;;8.20;81.90;;;;;;4952723;28;20436;-87
2022/02/06 05:35:23;;;;;;;9.40;2.42;;;8.20;82.10;;;;;;4952455;28;20046;-87
2022/02/06 05:37:50;;;;;;;10.38;2.80;;;8.20;82.10;;;;;;4951958;28;20059;-88
2022/02/06 05:40:17;;;;;;;11.93;3.25;;;8.20;82.20;;;;;;4952753;28;20063;-87
2022/02/06 05:42:44;;;;;;;10.55;2.45;;;8.20;82.30;;;;;;4952439;28;20048;-87
2022/02/06 05:45:12;;;;;;;10.00;2.95;;;8.10;82.40;;;;;;4953970;28;20070;-87
2022/02/06 05:47:39;;;;;;;10.30;2.80;;;8.20;82.50;;;;;;4952614;28;20139;-87
2022/02/06 05:50:07;;;;;;;17.75;2.75;;;8.20;82.60;;;;;;4951498;28;20051;-87
2022/02/06 05:52:34;;;;;;;15.50;3.17;;;8.20;82.70;;;;;;4953829;28;20051;-87
2022/02/06 05:55:01;;;;;;;13.18;3.63;;;8.20;82.80;;;;;;4952437;28;20055;-87
2022/02/06 05:57:28;;;;;;;13.20;3.40;;;8.10;82.80;;;;;;4952475;28;20052;-86
2022/02/06 05:59:55;;;;;;;13.52;2.97;;;8.10;82.90;;;;;;4952520;28;20047;-86
2022/02/06 06:02:23;;;;;;;12.77;3.05;;;8.10;83.00;;;;;;4952231;28;20059;-87
2022/02/06 06:04:50;;;;;;;14.55;2.67;;;8.10;83.10;;;;;;4967934;28;20054;-88
2022/02/06 06:07:17;;;;;;;17.05;3.28;;;8.10;83.20;;;;;;4993105;28;20061;-87
2022/02/06 06:09:44;;;;;;;19.15;3.70;;;8.10;83.20;;;;;;4993163;28;20062;-87
2022/02/06 06:12:11;;;;;;;23.00;3.55;;;8.10;83.30;;;;;;4992119;28;20066;-87
2022/02/06 06:14:40;;;;;;;14.93;3.08;;;8.00;83.40;;;;;;4993307;28;20042;-87
2022/02/06 06:17:07;;;;;;;15.73;3.72;;;8.10;83.50;;;;;;4992073;28;20058;-88
2022/02/06 06:19:36;;;;;;;12.68;2.97;;;8.10;83.50;;;;;;4992453;28;20042;-87
2022/02/06 06:22:07;;;;;;;17.27;3.75;;;8.10;83.60;;;;;;4993020;28;20047;-88
2022/02/06 06:24:42;;;;;;;11.98;2.80;;;8.10;83.70;;;;;;4992109;28;20053;-88
2022/02/06 06:27:09;;;;;;;17.30;3.25;;;8.10;83.80;;;;;;4996743;28;20049;-87
2022/02/06 06:29:36;;;;;;;17.92;3.40;;;8.10;83.80;;;;;;4995611;28;20054;-86
2022/02/06 06:32:04;;;;;;;15.75;3.55;;;8.10;83.90;;;;;;4995280;28;20050;-87
2022/02/06 06:34:32;;;;;;;13.30;2.83;;;8.10;84.00;;;;;;4996789;28;20078;-87
2022/02/06 06:36:59;;;;;;;16.58;3.30;;;8.10;84.10;;;;;;4996425;28;20065;-87
2022/02/06 06:42:07;;;;;;;10.63;2.85;;;8.10;84.30;;;;;;4996298;28;20047;-87
2022/02/06 06:44:35;;;;;;;14.38;3.13;;;8.10;84.30;;;;;;4996375;28;20042;-88
2022/02/06 06:47:03;;;;;;;20.50;3.60;;;8.10;84.40;;;;;;4995159;28;20046;-88
2022/02/06 06:49:30;;;;;;;13.55;3.22;;;8.20;84.50;;;;;;4996136;28;20060;-89
2022/02/06 06:51:58;;;;;;;8.82;2.58;;;8.10;84.50;;;;;;4996134;28;20061;-87
2022/02/06 06:54:34;;;;;;;13.38;2.97;;;8.20;84.60;;;;;;4996184;28;20042;-87
2022/02/06 06:57:14;;;;;;;17.70;3.08;;;8.20;84.60;;;;;;4994852;28;20050;-86
2022/02/06 07:02:27;;;;;;;16.27;3.55;;;8.20;84.80;;;;;;4994890;28;20058;-87
2022/02/06 07:04:57;;;;;;;17.65;3.70;;;8.20;84.80;;;;;;4994918;28;20086;-87
2022/02/06 07:07:25;;;;;;;10.05;3.20;;;8.20;84.80;;;;;;4995794;28;20114;-87
2022/02/06 07:09:53;;;;;;;14.65;3.45;;;8.20;84.90;;;;;;4994519;28;20500;-87
2022/02/06 07:12:20;;;;;;;16.33;3.38;;;8.20;84.90;;;;;;4995805;28;20060;-87
2022/02/06 07:14:50;;;;;;;14.32;3.35;;;8.20;84.90;;;;;;4995965;28;20053;-87
2022/02/06 07:17:18;;;;;;;20.27;4.10;;;8.20;84.90;;;;;;4995736;28;20054;-86
2022/02/06 07:19:45;;;;;;;20.35;4.05;;;8.20;84.90;;;;;;4994922;28;20046;-87
2022/02/06 07:22:16;;;;;;;12.50;3.25;;;8.20;85.00;;;;;;4995590;28;20065;-87
2022/02/06 07:24:45;;;;;;;13.65;3.88;;;8.20;85.00;;;;;;4995590;28;20125;-87
2022/02/06 07:27:26;;;;;;;11.45;3.30;;;8.20;85.00;;;;;;4995604;28;20096;-86
2022/02/06 07:29:56;;;;;;;14.15;3.30;;;8.20;85.00;;;;;;4995330;28;20057;-86
2022/02/06 07:32:24;;;;;;;11.35;3.90;;;8.20;85.10;;;;;;4995363;28;22631;-85
2022/02/06 07:34:51;;;;;;;13.20;3.17;;;8.20;85.10;;;;;;4994678;28;20069;-89
2022/02/06 07:37:18;;;;;;;13.75;3.60;;;8.20;85.10;;;;;;4993839;28;20054;-87
2022/02/06 07:39:46;;;;;;;13.82;3.53;;;8.20;85.10;;;;;;4995630;28;20073;-87
2022/02/06 07:42:13;;;;;;;10.07;3.05;;;8.20;85.20;;;;;;4995392;28;20046;-88
2022/02/06 07:44:46;;;;;;;11.63;3.30;;;8.20;85.20;;;;;;4994997;28;20047;-87
2022/02/06 07:47:19;;;;;;;8.32;3.28;;;8.20;85.20;;;;;;4995038;28;20043;-87
2022/02/06 07:49:51;;;;;;;11.02;3.10;;;8.20;85.30;;;;;;4991907;28;20062;-87
2022/02/06 07:52:21;;;;;;;12.30;2.95;;;8.20;85.30;;;;;;4994990;28;20046;-86
2022/02/06 07:54:50;;;;;;;9.93;2.50;;;8.20;85.30;;;;;;4994955;28;20062;-87
2022/02/06 07:57:17;;;;;;;9.45;2.63;;;8.20;85.40;;;;;;4994754;28;20436;-86
2022/02/06 07:59:44;;;;;;;9.68;2.50;;;8.20;85.40;;;;;;4994728;28;20057;-85
2022/02/06 08:02:12;;;;;;;16.58;3.58;;;8.20;85.50;;;;;;4994570;28;20046;-85
2022/02/06 08:04:39;;;;;;;16.63;3.22;;;8.30;85.50;;;;;;4994119;28;20054;-85
2022/02/06 08:07:07;;;;;;;12.30;2.88;;;8.30;85.60;;;;;;4993632;28;20046;-86
2022/02/06 08:09:50;;;;;;;9.40;2.70;;;8.30;85.60;;;;;;4992340;28;20070;-84
2022/02/06 08:12:25;;;;;;;12.77;2.90;;;8.30;85.60;;;;;;4989922;28;20047;-85
2022/02/06 08:14:56;;;;;;;9.02;2.30;;;8.30;85.70;;;;;;4993866;28;20061;-85
2022/02/06 08:17:33;;;;;;;10.75;2.88;;;8.30;85.70;;;;;;4993190;28;20046;-85
2022/02/06 08:20:05;;;;;;;10.73;2.80;;;8.30;85.70;;;;;;4989639;28;20066;-84
2022/02/06 08:22:32;;;;;;;14.07;3.05;;;8.40;85.70;;;;;;4993849;28;20054;-85
2022/02/06 08:24:59;;;;;;;11.48;2.63;;;8.40;85.80;;;;;;4994098;28;20050;-85
2022/02/06 08:27:28;;;;;;;12.55;2.55;;;8.40;85.80;;;;;;4993843;28;20043;-86
2022/02/06 08:29:55;;;;;;;7.90;1.90;;;8.40;85.80;;;;;;4994015;28;20042;-86
2022/02/06 08:32:23;;;;;;;13.07;2.40;;;8.40;85.90;;;;;;4993927;28;20053;-86
2022/02/06 08:34:50;;;;;;;13.15;2.42;;;8.40;85.90;;;;;;4993316;28;20057;-84
2022/02/06 08:37:17;;;;;;;13.52;2.60;;;8.40;85.90;;;;;;4992471;28;20519;-84
2022/02/06 08:39:45;;;;;;;11.25;2.30;;;8.40;85.90;;;;;;4993092;28;20046;-84
2022/02/06 08:42:14;;;;;;;10.45;2.10;;;8.50;86.00;;;;;;4993861;28;20054;-85
2022/02/06 08:44:45;;;;;;;12.25;2.25;;;8.50;85.90;;;;;;4993025;28;20046;-86
2022/02/06 08:47:14;;;;;;;11.45;2.33;;;8.50;86.00;;;;;;4993538;28;20061;-86
2022/02/06 08:49:44;;;;;;;9.65;2.15;;;8.50;86.00;;;;;;4991231;28;20105;-85
2022/02/06 08:52:12;;;;;;;13.52;2.65;;;8.50;86.00;;;;;;4994055;28;20046;-85
2022/02/06 08:54:39;;;;;;;9.90;1.88;;;8.50;86.00;;;;;;4993938;28;20053;-85
2022/02/06 08:57:21;;;;;;;10.80;1.95;;;8.60;86.00;;;;;;4992528;28;20046;-85
2022/02/06 08:59:48;;;;;;;8.88;2.22;;;8.60;86.10;;;;;;4994160;28;20061;-85
2022/02/06 09:02:15;;;;;;;8.23;2.13;;;8.60;86.00;;;;;;4992717;28;20058;-85
2022/02/06 09:04:44;;;;;;;13.98;2.00;;;8.60;86.10;;;;;;4991083;28;20053;-85
2022/02/06 09:07:12;;;;;;;8.73;1.70;;;8.60;86.10;;;;;;4993839;28;20054;-85
2022/02/06 09:09:44;;;;;;;7.32;1.50;;;8.70;86.10;;;;;;4993675;28;20062;-85
2022/02/06 09:12:11;;;;;;;8.57;1.80;;;8.70;86.10;;;;;;4993293;28;20050;-85
2022/02/06 09:14:39;;;;;;;8.35;1.63;;;8.70;86.10;;;;;;4993826;28;20534;-85
2022/02/06 09:17:07;;;;;;;12.70;1.50;;;8.70;86.20;;;;;;4992948;28;20054;-85
2022/02/06 09:19:36;;;;;;;7.03;1.55;;;8.70;86.20;;;;;;4994049;28;20054;-86
2022/02/06 09:22:04;;;;;;;4.68;1.40;;;8.70;86.20;;;;;;4993651;28;20084;-85
2022/02/06 09:24:31;;;;;;;5.13;1.35;;;8.70;86.20;;;;;;4992363;28;20450;-86
2022/02/06 09:26:58;;;;;;;9.93;1.70;;;8.70;86.20;;;;;;4993411;28;20048;-84
2022/02/06 09:29:25;;;;;;;6.28;1.40;;;8.70;86.20;;;;;;4993745;28;20050;-85
2022/02/06 09:31:53;;;;;;;7.57;1.60;;;8.80;86.20;;;;;;4992923;28;20051;-85
2022/02/06 09:36:48;;;;;;;4.00;1.30;;;8.80;86.20;;;;;;4993312;28;20051;-85
2022/02/06 09:39:16;;;;;;;7.95;1.48;;;8.80;86.20;;;;;;4993579;28;20046;-88
2022/02/06 09:41:47;;;;;;;9.25;1.60;;;8.80;86.30;;;;;;4993122;28;20050;-86
2022/02/06 09:44:15;;;;;;;6.65;1.20;;;8.80;86.30;;;;;;4993482;28;20057;-87
2022/02/06 09:46:50;;;;;;;4.97;1.27;;;8.80;86.30;;;;;;4991661;28;20513;-86
2022/02/06 09:49:21;;;;;;;5.10;1.27;;;8.90;86.30;;;;;;4990951;28;20038;-86
2022/02/06 09:51:50;;;;;;;7.65;1.52;;;8.90;86.30;;;;;;4990740;28;20061;-85
2022/02/06 09:54:22;;;;;;;7.53;1.55;;;8.90;86.30;;;;;;4992695;28;20061;-86
2022/02/06 09:56:54;;;;;;;6.90;1.63;;;8.90;86.30;;;;;;4983037;28;20058;-86
2022/02/06 09:59:22;;;;;;;6.82;1.50;;;8.90;86.30;;;;;;4994309;28;20546;-87
2022/02/06 10:01:54;;;;;;;8.18;1.65;;;8.90;86.30;;;;;;4995735;28;20054;-86
2022/02/06 10:04:28;;;;;;;6.50;1.55;;;8.90;86.30;;;;;;4995510;28;20046;-86
2022/02/06 10:07:09;;;;;;;6.03;1.30;;;8.90;86.30;;;;;;4996278;28;20504;-85
2022/02/06 10:09:43;;;;;;;7.10;1.50;;;8.90;86.30;;;;;;4989655;28;20518;-85
2022/02/06 10:12:13;;;;;;;4.03;1.15;;;8.90;86.30;;;;;;4995358;28;20045;-86
2022/02/06 10:14:40;;;;;;;7.15;1.50;;;9.00;86.40;;;;;;4996395;28;20046;-86
2022/02/06 10:17:08;;;;;;;8.38;1.60;;;9.00;86.40;;;;;;4995795;28;20054;-88
2022/02/06 10:19:38;;;;;;;4.03;0.80;;;9.00;86.40;;;;;;4996975;28;20046;-87
2022/02/06 10:22:27;;;;;;;8.80;1.35;;;9.00;86.40;;;;;;4989592;28;20500;-88
2022/02/06 10:25:06;;;;;;;9.57;1.48;;;9.10;86.50;;;;;;4991789;28;20050;-88
2022/02/06 10:28:04;;;;;;;9.00;1.55;;;9.10;86.50;;;;;;4996180;28;20481;-88
2022/02/06 10:30:41;;;;;;;8.85;1.73;;;9.20;86.50;;;;;;4995935;28;20053;-87
2022/02/06 10:33:15;;;;;;;8.02;1.48;;;9.20;86.50;;;;;;4996391;28;20051;-85
2022/02/06 10:35:44;;;;;;;9.35;1.85;;;9.20;86.50;;;;;;4996303;28;20125;-87
2022/02/06 10:38:22;;;;;;;10.57;1.58;;;9.30;86.60;;;;;;4995050;28;20080;-86
2022/02/06 10:41:12;;;;;;;10.95;1.67;;;9.30;86.60;;;;;;4994221;28;20054;-85
2022/02/06 10:43:56;;;;;;;14.13;1.80;;;9.30;86.70;;;;;;4993744;28;20046;-86
2022/02/06 10:46:25;;;;;;;12.10;1.92;;;9.40;86.70;;;;;;4995190;28;20120;-86
2022/02/06 10:48:55;;;;;;;9.45;2.10;;;9.40;86.70;;;;;;4995084;28;20065;-86
2022/02/06 10:51:38;;;;;;;18.50;2.88;;;9.40;86.70;;;;;;4996286;28;20551;-85
2022/02/06 10:54:08;;;;;;;12.70;1.95;;;9.50;86.70;;;;;;4995825;28;20050;-86
2022/02/06 10:56:40;;;;;;;14.38;2.33;;;9.50;86.70;;;;;;4996083;28;20506;-86
2022/02/06 10:59:08;;;;;;;13.93;2.55;;;9.50;86.70;;;;;;4995405;28;20051;-85
2022/02/06 11:01:40;;;;;;;19.17;4.45;;;9.50;86.70;;;;;;4996514;28;20043;-86
2022/02/06 11:04:25;;;;;;;17.60;4.03;;;9.60;86.70;;;;;;4995938;28;20046;-86
2022/02/06 11:07:06;;;;;;;17.27;3.25;;;9.60;86.70;;;;;;4995542;28;20054;-86
2022/02/06 11:09:33;;;;;;;13.73;2.63;;;9.60;86.60;;;;;;4995728;28;20088;-86
2022/02/06 11:12:20;;;;;;;14.30;2.63;;;9.70;86.60;;;;;;4995355;28;20046;-87
2022/02/06 11:14:51;;;;;;;23.15;3.35;;;9.70;86.60;;;;;;4982662;28;20053;-87
2022/02/06 11:17:20;;;;;;;19.88;3.05;;;9.70;86.60;;;;;;4995823;28;20518;-86
2022/02/06 11:20:11;;;;;;;20.60;2.85;;;9.70;86.50;;;;;;4994979;28;20474;-86
2022/02/06 11:22:52;;;;;;;12.70;2.35;;;9.80;86.50;;;;;;4995174;28;20043;-85
2022/02/06 11:25:19;;;;;;;19.52;3.15;;;9.80;86.40;;;;;;4995498;28;20050;-85
2022/02/06 11:27:47;;;;;;;17.15;2.22;;;9.80;86.40;;;;;;4995589;28;20042;-86
2022/02/06 11:30:13;;;;;;;18.17;2.92;;;9.90;86.30;;;;;;4995426;28;20423;-86
2022/02/06 11:32:42;;;;;;;11.60;2.35;;;9.90;86.30;;;;;;4995452;28;20050;-85
2022/02/06 11:35:14;;;;;;;14.10;1.90;;;9.90;86.20;;;;;;4994915;28;20058;-85
2022/02/06 11:46:40;;;;;;;20.58;2.83;;;10.10;85.90;;;;;;4916783;29;20143;-86
2022/02/06 11:49:15;;;;;;;13.38;2.20;;;10.20;85.70;;;;;;4916160;29;20048;-86
2022/02/06 11:51:56;;;;;;;18.30;2.50;;;10.20;85.60;;;;;;4915599;29;20510;-86
2022/02/06 11:54:54;;;;;;;13.85;2.22;;;10.30;85.40;;;;;;4916000;29;20052;-85
2022/02/06 11:57:27;;;;;;;21.40;3.10;;;10.30;85.20;;;;;;4896586;28;20532;-86
2022/02/06 12:00:06;;;;;;;26.90;4.05;;;10.40;85.00;;;;;;4916038;29;20048;-85
2022/02/06 12:02:36;;;;;;;28.40;4.07;;;10.40;84.90;;;;;;4901381;29;20051;-87
2022/02/06 12:05:09;;;;;;;23.95;3.80;;;10.40;84.60;;;;;;4914769;29;20057;-84
2022/02/06 12:07:53;;;;;;;28.83;4.72;;;10.40;84.50;;;;;;4916526;29;20143;-85
2022/02/06 12:10:46;;;;;;;25.15;4.32;;;10.40;84.30;;;;;;4895816;29;20052;-85
2022/02/06 12:16:01;;;;;;;30.77;4.90;;;10.40;83.90;;;;;;4915600;29;20059;-85
2022/02/06 12:18:31;;;;;;;35.40;4.53;;;10.40;83.80;;;;;;4992063;28;20129;-85
2022/02/06 12:21:22;;;;;;;26.17;4.30;;;10.40;83.70;;;;;;4994358;28;20057;-84
2022/02/06 12:23:51;;;;;;;26.02;4.32;;;10.40;83.70;;;;;;4981060;28;20057;-86
2022/02/06 12:26:31;;;;;;;26.65;4.18;;;10.40;83.70;;;;;;4992763;28;20169;-86
2022/02/06 12:29:10;;;;;;;23.02;4.65;;;10.50;83.60;;;;;;4992310;28;20443;-85
2022/02/06 12:31:59;;;;;;;29.23;4.65;;;10.40;83.60;;;;;;4994280;28;20058;-85
2022/02/06 12:37:32;;;;;;;23.75;4.55;;;10.50;83.50;;;;;;4993711;28;20046;-85
2022/02/06 12:40:16;;;;;;;26.30;3.88;;;10.50;83.40;;;;;;4992464;28;20058;-85
2022/02/06 12:42:49;;;;;;;28.88;4.68;;;10.50;83.40;;;;;;4993804;28;20065;-84
2022/02/06 12:45:18;;;;;;;26.67;4.65;;;10.50;83.40;;;;;;4992606;28;20046;-85
2022/02/06 12:47:51;;;;;;;28.92;4.70;;;10.50;83.40;;;;;;4993473;28;20050;-85
2022/02/06 12:50:21;;;;;;;27.45;4.93;;;10.50;83.50;;;;;;4993617;28;20051;-85
2022/02/06 12:52:50;;;;;;;24.52;5.65;;;10.50;83.50;;;;;;4992963;28;20047;-85
2022/02/06 12:55:23;;;;;;;40.58;5.63;;;10.40;83.50;;;;;;4993318;28;20720;-85
2022/02/06 12:57:52;;;;;;;36.88;5.43;;;10.40;83.60;;;;;;4993705;28;20058;-85
2022/02/06 13:00:46;;;;;;;24.92;5.10;;;10.40;83.70;;;;;;4993849;28;20042;-85
2022/02/06 13:03:19;;;;;;;20.15;4.55;;;10.40;83.70;;;;;;4993307;28;20507;-85
2022/02/06 13:06:11;;;;;;;21.60;3.97;;;10.40;83.70;;;;;;4992456;28;20053;-85
2022/02/06 13:08:40;;;;;;;26.65;4.57;;;10.40;83.70;;;;;;4968523;28;20051;-87
2022/02/06 13:11:14;;;;;;;27.83;4.70;;;10.30;83.50;;;;;;4992987;28;20061;-86
2022/02/06 13:13:58;;;;;;;23.50;4.68;;;10.30;83.40;;;;;;4991061;28;20542;-86
2022/02/06 13:19:21;;;;;;;30.23;4.60;;;10.20;83.30;;;;;;4993045;28;20058;-86
2022/02/06 13:27:56;;;;;;;21.00;3.50;;;10.10;83.20;;;;;;4993408;28;20046;-86
2022/02/06 13:36:18;;;;;;;15.13;2.70;;;10.00;82.80;;;;;;4997373;28;20419;-85
2022/02/06 13:38:55;;;;;;;15.80;2.45;;;10.00;82.70;;;;;;4997010;28;20050;-85
2022/02/06 13:41:29;;;;;;;16.42;2.92;;;9.90;82.60;;;;;;4996036;28;20050;-86
2022/02/06 13:43:58;;;;;;;12.30;2.60;;;9.90;82.50;;;;;;4992550;28;20046;-85
2022/02/06 13:46:33;;;;;;;15.20;2.45;;;9.90;82.50;;;;;;4995353;28;20428;-85
2022/02/06 13:49:02;;;;;;;17.20;2.40;;;9.90;82.40;;;;;;4997127;28;20511;-86
2022/02/06 13:51:37;;;;;;;12.63;2.42;;;9.90;82.40;;;;;;4997079;28;20038;-85
2022/02/06 13:54:06;;;;;;;12.60;2.40;;;9.80;82.30;;;;;;4996763;28;20046;-85
2022/02/06 13:56:42;;;;;;;15.73;2.45;;;9.70;82.20;;;;;;4996070;28;20053;-85
2022/02/06 13:59:19;;;;;;;14.65;2.17;;;9.80;82.20;;;;;;4996260;28;20054;-86
2022/02/06 14:01:53;;;;;;;13.65;2.15;;;9.70;82.20;;;;;;4993044;28;20069;-85
2022/02/06 14:04:21;;;;;;;16.47;1.93;;;9.60;82.10;;;;;;4996788;28;20530;-85
2022/02/06 14:07:00;;;;;;;14.02;2.45;;;9.70;82.10;;;;;;4996788;28;20046;-85
2022/02/06 14:09:31;;;;;;;17.95;2.75;;;9.60;82.10;;;;;;4996303;28;20527;-85
2022/02/06 14:12:00;;;;;;;14.88;3.05;;;9.60;82.10;;;;;;4995671;28;20053;-86
2022/02/06 14:14:28;;;;;;;18.20;2.15;;;9.60;82.10;;;;;;4996782;28;20488;-86
2022/02/06 14:17:26;;;;;;;9.82;2.10;;;9.60;82.10;;;;;;4994664;28;20530;-86
2022/02/06 14:19:59;;;;;;;11.77;1.77;;;9.50;82.00;;;;;;4995635;28;20423;-87
2022/02/06 14:22:33;;;;;;;16.20;2.20;;;9.60;82.00;;;;;;4996245;28;20046;-86
2022/02/06 14:25:06;;;;;;;;;;;9.50;82.00;;;;;;4997024;28;20057;-86
2022/02/06 14:27:40;;;;;;;13.48;2.38;;;9.50;82.00;;;;;;4996401;28;19926;-86
2022/02/06 14:30:15;;;;;;;19.02;2.35;;;9.50;81.90;;;;;;4994500;28;20045;-85
2022/02/06 14:33:04;;;;;;;18.20;2.70;;;9.50;81.90;;;;;;4996349;28;20054;-86
2022/02/06 14:35:55;;;;;;;14.35;2.55;;;9.50;81.90;;;;;;4981124;28;20570;-85
2022/02/06 14:43:51;;;;;;;12.85;2.05;;;9.50;82.10;;;;;;4993616;28;20434;-85
2022/02/06 14:46:19;;;;;;;13.63;2.47;;;9.50;82.10;;;;;;4994401;28;20050;-85
2022/02/06 14:48:46;;;;;;;11.73;2.08;;;9.50;82.20;;;;;;4994814;28;20053;-86
2022/02/06 14:51:20;;;;;;;;;;;9.50;82.30;;;;;;4995504;28;20133;-86
2022/02/06 14:53:48;;;;;;;19.45;3.08;;;9.50;82.30;;;;;;4995964;28;19930;-85
2022/02/06 14:56:15;;;;;;;15.38;2.20;;;9.50;82.30;;;;;;4995981;28;20050;-86
2022/02/06 14:58:42;;;;;;;14.05;2.15;;;9.50;82.40;;;;;;4995156;28;20069;-85
2022/02/06 15:01:10;;;;;;;15.00;2.38;;;9.50;82.30;;;;;;4995076;28;20416;-87
2022/02/06 15:03:37;;;;;;;11.43;2.13;;;9.50;82.30;;;;;;4995795;28;20526;-86
2022/02/06 15:06:04;;;;;;;14.50;2.40;;;9.50;82.30;;;;;;4995777;28;20128;-86
2022/02/06 15:08:31;;;;;;;16.88;2.80;;;9.60;82.20;;;;;;4994815;28;20048;-85
2022/02/06 15:10:59;;;;;;;17.42;2.03;;;9.50;82.20;;;;;;4990638;28;20047;-85
2022/02/06 15:13:30;;;;;;;12.05;2.35;;;9.60;82.20;;;;;;4995427;28;20503;-85
2022/02/06 15:16:02;;;;;;;15.48;2.42;;;9.60;82.10;;;;;;4995809;28;20503;-86
2022/02/06 15:18:37;;;;;;;18.30;2.53;;;9.60;82.00;;;;;;4995688;28;20043;-87
2022/02/06 15:21:07;;;;;;;18.17;2.78;;;9.60;82.00;;;;;;4995689;28;20050;-85
2022/02/06 15:23:36;;;;;;;23.52;3.25;;;9.70;82.00;;;;;;4994580;28;20065;-85
2022/02/06 15:26:04;;;;;;;19.75;3.33;;;9.70;82.00;;;;;;4994846;28;20447;-85
2022/02/06 15:28:31;;;;;;;17.67;3.08;;;9.70;82.00;;;;;;4995329;28;20053;-86
2022/02/06 15:30:58;;;;;;;27.05;3.75;;;9.70;82.00;;;;;;4992019;28;20050;-85
2022/02/06 15:33:25;;;;;;;22.52;3.15;;;9.70;82.10;;;;;;4993797;28;20046;-85
2022/02/06 15:35:52;;;;;;;18.67;3.78;;;9.70;82.10;;;;;;4996197;28;20261;-85
2022/02/06 15:38:22;;;;;;;19.42;3.60;;;9.80;82.20;;;;;;4995016;28;20087;-85
2022/02/06 15:40:50;;;;;;;24.95;3.92;;;9.80;82.30;;;;;;4993793;28;20051;-85
2022/02/06 15:43:17;;;;;;;24.20;3.63;;;9.80;82.50;;;;;;4994539;28;20058;-85
2022/02/06 15:45:45;;;;;;;24.08;4.25;;;9.80;82.50;;;;;;4994973;28;20114;-85
2022/02/06 15:48:12;;;;;;;19.55;3.42;;;9.70;82.60;;;;;;4994408;28;20057;-85
2022/02/06 15:50:39;;;;;;;20.27;3.30;;;9.80;82.80;;;;;;4994745;28;20050;-85
2022/02/06 15:53:06;;;;;;;18.60;3.20;;;9.80;82.80;;;;;;4993677;28;20052;-85
2022/02/06 15:55:33;;;;;;;17.60;3.58;;;9.70;82.90;;;;;;4994678;28;20054;-85
2022/02/06 15:58:06;;;;;;;21.67;3.13;;;9.70;83.00;;;;;;4994054;28;20056;-86
2022/02/06 16:00:33;;;;;;;14.05;3.28;;;9.70;83.10;;;;;;4994597;28;20042;-86
2022/02/06 16:03:00;;;;;;;21.27;3.33;;;9.70;83.20;;;;;;4993116;28;20049;-85